Time;durP1;ratioP1;P1;durP2;ratioP2;P2;SDS_P1;SDS_P2;PMS_P1;PMS_P2;Temp;Humidity;BMP_temperature;BMP_pressure;BME280_temperature;BME280_humidity;BME280_pressure;Samples;Min_cycle;Max_cycle;Signal;HPM_P1;HPM_P2
2023/06/19 00:00:15;;;;;;;15.77;11.77;;;20.10;99.90;;;;;;5055494;28;20124;-80
2023/06/19 00:02:41;;;;;;;15.20;12.40;;;20.10;99.90;;;;;;5054289;28;20045;-79
2023/06/19 00:05:09;;;;;;;13.60;11.68;;;20.20;99.90;;;;;;5053977;28;20080;-79
2023/06/19 00:07:37;;;;;;;14.13;12.38;;;20.20;99.90;;;;;;5055347;28;20115;-79
2023/06/19 00:10:04;;;;;;;12.40;10.98;;;20.20;99.90;;;;;;5055197;28;20436;-79
2023/06/19 00:12:30;;;;;;;13.02;11.63;;;20.20;99.90;;;;;;5054039;28;20073;-79
2023/06/19 00:14:56;;;;;;;15.27;11.73;;;20.20;99.90;;;;;;5053632;28;20080;-79
2023/06/19 00:17:22;;;;;;;13.40;11.90;;;20.20;99.90;;;;;;5054973;28;20568;-79
2023/06/19 00:19:48;;;;;;;12.55;11.25;;;20.20;99.90;;;;;;5053763;28;20072;-79
2023/06/19 00:22:14;;;;;;;12.52;10.68;;;20.10;99.90;;;;;;5053968;28;20057;-79
2023/06/19 00:24:40;;;;;;;14.60;10.95;;;20.10;99.90;;;;;;5053711;28;20086;-80
2023/06/19 00:27:06;;;;;;;14.13;11.02;;;20.10;99.90;;;;;;5054848;28;20049;-80
2023/06/19 00:29:32;;;;;;;11.93;10.63;;;20.10;99.90;;;;;;5053841;28;20040;-80
2023/06/19 00:31:59;;;;;;;12.02;10.68;;;20.10;99.90;;;;;;5053598;28;20048;-80
2023/06/19 00:34:25;;;;;;;11.13;9.93;;;20.10;99.90;;;;;;5053415;28;20127;-80
2023/06/19 00:36:55;;;;;;;11.75;10.18;;;20.10;99.90;;;;;;5053718;28;20559;-79
2023/06/19 00:39:25;;;;;;;11.68;9.63;;;20.10;99.90;;;;;;5053458;28;20048;-79
2023/06/19 00:41:56;;;;;;;13.00;9.80;;;20.10;99.90;;;;;;5054716;28;20040;-79
2023/06/19 00:44:22;;;;;;;12.23;10.05;;;20.10;99.90;;;;;;5053632;28;20485;-79
2023/06/19 00:46:53;;;;;;;11.45;9.07;;;20.10;99.90;;;;;;5054460;28;20083;-79
2023/06/19 00:49:19;;;;;;;10.23;9.13;;;20.20;99.90;;;;;;5054564;28;20048;-79
2023/06/19 00:51:44;;;;;;;11.30;9.45;;;20.20;99.90;;;;;;5053980;28;20393;-79
2023/06/19 00:54:13;;;;;;;10.35;9.35;;;20.20;99.90;;;;;;5053168;28;20392;-79
2023/06/19 00:56:41;;;;;;;10.05;9.05;;;20.20;99.90;;;;;;5053426;28;20137;-79
2023/06/19 00:59:18;;;;;;;10.98;9.43;;;20.20;99.90;;;;;;5052978;28;20096;-79
2023/06/19 01:01:47;;;;;;;10.73;9.60;;;20.20;99.90;;;;;;5053020;28;20135;-79
2023/06/19 01:04:13;;;;;;;12.45;10.13;;;20.20;99.90;;;;;;5053258;28;20041;-79
2023/06/19 01:06:58;;;;;;;10.85;9.68;;;20.20;99.90;;;;;;5052923;28;20477;-79
2023/06/19 01:09:29;;;;;;;11.43;10.23;;;20.20;99.90;;;;;;5053021;28;20052;-79
2023/06/19 01:12:12;;;;;;;13.45;10.00;;;20.20;99.90;;;;;;5052920;28;20044;-79
2023/06/19 01:15:05;;;;;;;11.80;9.70;;;20.20;99.90;;;;;;5054238;28;20056;-79
2023/06/19 01:17:31;;;;;;;14.48;10.20;;;20.10;99.90;;;;;;5052876;28;20068;-79
2023/06/19 01:19:57;;;;;;;11.30;10.10;;;20.10;99.90;;;;;;5052813;28;20091;-79
2023/06/19 01:22:29;;;;;;;11.27;9.98;;;20.20;99.90;;;;;;5052900;28;20052;-79
2023/06/19 01:24:55;;;;;;;10.68;9.48;;;20.20;99.90;;;;;;5052663;28;20053;-79
2023/06/19 01:27:22;;;;;;;10.07;8.98;;;20.20;99.90;;;;;;5052513;28;20133;-79
2023/06/19 01:29:49;;;;;;;11.43;8.88;;;20.20;99.90;;;;;;5052612;28;20045;-78
2023/06/19 01:32:30;;;;;;;11.07;9.68;;;20.20;99.90;;;;;;5053751;28;20040;-79
2023/06/19 01:34:59;;;;;;;10.93;9.82;;;20.20;99.90;;;;;;5052278;28;20068;-78
2023/06/19 01:37:28;;;;;;;11.77;9.05;;;20.20;99.90;;;;;;5053593;28;20484;-79
2023/06/19 01:39:56;;;;;;;12.57;9.57;;;20.20;99.90;;;;;;5052577;28;20128;-79
2023/06/19 01:42:22;;;;;;;10.82;9.73;;;20.20;99.90;;;;;;5052699;28;20053;-78
2023/06/19 01:44:49;;;;;;;10.55;9.13;;;20.20;99.90;;;;;;5053429;28;20045;-79
2023/06/19 01:47:19;;;;;;;9.65;8.65;;;20.20;99.90;;;;;;5052170;28;20052;-79
2023/06/19 01:49:46;;;;;;;11.05;9.30;;;20.20;99.90;;;;;;5053672;28;20094;-79
2023/06/19 01:52:12;;;;;;;10.85;9.70;;;20.20;99.90;;;;;;5053469;28;20041;-79
2023/06/19 01:54:38;;;;;;;13.77;9.80;;;20.20;99.90;;;;;;5053604;28;20045;-79
2023/06/19 01:57:04;;;;;;;11.55;9.32;;;20.20;99.90;;;;;;5053472;28;20057;-79
2023/06/19 01:59:29;;;;;;;10.57;9.20;;;20.20;99.90;;;;;;5053311;28;20045;-79
2023/06/19 02:01:55;;;;;;;13.43;9.63;;;20.20;99.90;;;;;;5053506;28;20098;-79
2023/06/19 02:04:20;;;;;;;10.90;9.48;;;20.30;99.90;;;;;;5055688;28;20064;-79
2023/06/19 02:06:46;;;;;;;10.82;9.18;;;20.30;99.90;;;;;;5056316;28;20408;-78
2023/06/19 02:09:12;;;;;;;11.57;9.63;;;20.30;99.90;;;;;;5056306;28;20048;-79
2023/06/19 02:11:37;;;;;;;10.30;9.25;;;20.30;99.90;;;;;;5056147;28;20075;-79
2023/06/19 02:14:03;;;;;;;10.52;9.38;;;20.30;99.90;;;;;;5056025;28;20048;-79
2023/06/19 02:16:29;;;;;;;11.20;9.63;;;20.30;99.90;;;;;;5056078;28;20041;-79
2023/06/19 02:18:56;;;;;;;12.93;10.30;;;20.30;99.90;;;;;;5057856;28;20048;-79
2023/06/19 02:21:22;;;;;;;12.15;9.23;;;20.30;99.90;;;;;;5057378;28;20032;-80
2023/06/19 02:23:48;;;;;;;11.43;9.95;;;20.30;99.90;;;;;;5057188;28;20400;-80
2023/06/19 02:26:13;;;;;;;11.30;9.15;;;20.20;99.90;;;;;;5055980;28;20417;-79
2023/06/19 02:28:39;;;;;;;11.43;10.13;;;20.30;99.90;;;;;;5057213;28;20045;-79
2023/06/19 02:31:05;;;;;;;11.45;9.60;;;20.30;99.90;;;;;;5056070;28;20053;-79
2023/06/19 02:33:32;;;;;;;10.57;9.23;;;20.30;99.90;;;;;;5055416;28;20071;-78
2023/06/19 02:35:58;;;;;;;10.38;9.27;;;20.30;99.90;;;;;;5057154;28;20049;-77
2023/06/19 02:38:30;;;;;;;12.88;9.57;;;20.30;99.90;;;;;;5055673;28;20041;-79
2023/06/19 02:41:01;;;;;;;11.95;9.98;;;20.30;99.90;;;;;;5056009;28;20045;-78
2023/06/19 02:43:26;;;;;;;11.88;10.23;;;20.30;99.90;;;;;;5057010;28;20044;-79
2023/06/19 02:45:52;;;;;;;11.43;9.60;;;20.30;99.90;;;;;;5055756;28;20060;-79
2023/06/19 02:48:19;;;;;;;15.02;9.75;;;20.30;99.90;;;;;;5055511;28;20067;-79
2023/06/19 02:50:44;;;;;;;12.18;10.00;;;20.30;99.90;;;;;;5055807;28;20057;-79
2023/06/19 02:53:11;;;;;;;10.90;9.50;;;20.20;99.90;;;;;;5055442;28;20402;-79
2023/06/19 02:55:36;;;;;;;14.98;9.70;;;20.20;99.90;;;;;;5055269;28;20049;-79
2023/06/19 02:58:03;;;;;;;11.38;9.52;;;20.30;99.90;;;;;;5055278;28;20111;-79
2023/06/19 03:00:28;;;;;;;10.40;9.30;;;20.20;99.90;;;;;;5056598;28;20040;-79
2023/06/19 03:02:54;;;;;;;11.98;9.63;;;20.30;99.90;;;;;;5055405;28;20063;-78
2023/06/19 03:05:20;;;;;;;11.20;9.95;;;20.20;99.90;;;;;;5055101;28;20045;-79
2023/06/19 03:07:46;;;;;;;12.48;9.45;;;20.20;99.90;;;;;;5056523;28;20065;-78
2023/06/19 03:10:12;;;;;;;11.65;9.93;;;20.20;99.90;;;;;;5054946;28;20472;-79
2023/06/19 03:12:37;;;;;;;11.73;10.15;;;20.20;99.90;;;;;;5054837;28;20516;-80
2023/06/19 03:15:03;;;;;;;11.77;10.15;;;20.20;99.90;;;;;;5055668;28;20116;-79
2023/06/19 03:17:29;;;;;;;11.43;10.23;;;20.30;99.90;;;;;;5054989;28;20041;-80
2023/06/19 03:19:55;;;;;;;11.60;9.82;;;20.20;99.90;;;;;;5054500;28;20400;-79
2023/06/19 03:22:21;;;;;;;12.13;10.02;;;20.20;99.90;;;;;;5055772;28;20477;-79
2023/06/19 03:24:47;;;;;;;12.15;10.23;;;20.20;99.90;;;;;;5053635;28;20076;-80
2023/06/19 03:27:13;;;;;;;12.82;10.20;;;20.10;99.90;;;;;;5055838;28;20479;-79
2023/06/19 03:29:38;;;;;;;13.57;10.50;;;20.20;99.90;;;;;;5054841;28;20141;-79
2023/06/19 03:32:04;;;;;;;12.40;10.98;;;20.20;99.90;;;;;;5055960;28;20511;-79
2023/06/19 03:34:30;;;;;;;13.30;10.63;;;20.10;99.90;;;;;;5054406;28;20041;-79
2023/06/19 03:36:56;;;;;;;11.43;9.38;;;20.10;99.90;;;;;;5054612;28;20397;-80
2023/06/19 03:39:21;;;;;;;12.85;10.10;;;20.10;99.90;;;;;;5054585;28;20045;-79
2023/06/19 03:41:47;;;;;;;12.80;10.30;;;20.10;99.90;;;;;;5054577;28;20045;-79
2023/06/19 03:44:12;;;;;;;12.48;10.32;;;20.10;99.90;;;;;;5054299;28;20049;-79
2023/06/19 03:46:38;;;;;;;11.68;9.73;;;20.10;99.90;;;;;;5055696;28;20041;-79
2023/06/19 03:49:04;;;;;;;11.88;10.05;;;20.10;99.90;;;;;;5055636;28;20045;-79
2023/06/19 03:51:30;;;;;;;14.32;9.98;;;20.10;99.90;;;;;;5054405;28;20059;-79
2023/06/19 03:53:56;;;;;;;11.23;9.88;;;20.10;99.90;;;;;;5055598;28;20081;-79
2023/06/19 03:56:22;;;;;;;11.88;9.73;;;20.10;99.90;;;;;;5054302;28;20079;-79
2023/06/19 03:58:47;;;;;;;11.65;9.75;;;20.20;99.90;;;;;;5054143;28;20045;-78
2023/06/19 04:01:13;;;;;;;11.75;10.15;;;20.20;99.90;;;;;;5055471;28;20045;-79
2023/06/19 04:03:39;;;;;;;12.23;10.23;;;20.20;99.90;;;;;;5053923;28;20049;-79
2023/06/19 04:06:04;;;;;;;10.93;9.73;;;20.20;99.90;;;;;;5054006;28;20052;-79
2023/06/19 04:08:30;;;;;;;11.35;9.90;;;20.20;99.90;;;;;;5054015;28;20136;-79
2023/06/19 04:10:56;;;;;;;12.60;9.13;;;20.20;99.90;;;;;;5055250;28;20045;-79
2023/06/19 04:13:21;;;;;;;12.75;9.50;;;20.20;99.90;;;;;;5053655;28;20055;-79
2023/06/19 04:15:47;;;;;;;13.20;10.20;;;20.20;99.90;;;;;;5053710;28;20041;-79
2023/06/19 04:18:13;;;;;;;15.05;9.63;;;20.30;99.90;;;;;;5053661;28;20072;-79
2023/06/19 04:20:40;;;;;;;10.63;9.20;;;20.30;99.90;;;;;;5053481;28;20077;-78
2023/06/19 04:23:05;;;;;;;12.45;10.25;;;20.20;99.90;;;;;;5053644;28;20651;-79
2023/06/19 04:25:31;;;;;;;12.05;9.98;;;20.20;99.90;;;;;;5055017;28;20090;-79
2023/06/19 04:27:57;;;;;;;13.77;9.63;;;20.20;99.90;;;;;;5054166;28;20041;-79
2023/06/19 04:30:22;;;;;;;11.02;9.23;;;20.20;99.90;;;;;;5053621;28;20048;-79
2023/06/19 04:32:48;;;;;;;12.10;8.60;;;20.20;99.90;;;;;;5054763;28;20432;-79
2023/06/19 04:35:13;;;;;;;10.98;9.07;;;20.20;99.90;;;;;;5053087;28;20125;-79
2023/06/19 04:37:39;;;;;;;10.85;8.70;;;20.10;99.90;;;;;;5054419;28;20507;-79
2023/06/19 04:40:07;;;;;;;11.57;8.23;;;20.10;99.90;;;;;;5053208;28;20552;-79
2023/06/19 04:42:33;;;;;;;10.45;7.03;;;20.10;99.90;;;;;;5053406;28;20102;-79
2023/06/19 04:44:59;;;;;;;9.32;7.03;;;20.00;99.90;;;;;;5054450;28;20473;-78
2023/06/19 04:47:25;;;;;;;8.18;6.13;;;20.00;99.90;;;;;;5053026;28;20135;-79
2023/06/19 04:49:51;;;;;;;6.93;5.38;;;20.00;99.90;;;;;;5054526;28;20127;-79
2023/06/19 04:52:18;;;;;;;6.43;5.00;;;20.10;99.90;;;;;;5054356;28;20041;-79
2023/06/19 04:54:44;;;;;;;7.63;4.70;;;20.10;99.90;;;;;;5054482;28;20049;-79
2023/06/19 04:57:10;;;;;;;9.02;5.05;;;20.00;99.90;;;;;;5053058;28;20446;-79
2023/06/19 04:59:36;;;;;;;7.68;4.75;;;20.10;99.90;;;;;;5052878;28;20123;-79
2023/06/19 05:02:02;;;;;;;6.10;4.32;;;20.10;99.90;;;;;;5052827;28;20554;-80
2023/06/19 05:04:30;;;;;;;8.10;4.35;;;20.10;99.90;;;;;;5052854;28;20048;-80
2023/06/19 05:06:55;;;;;;;6.57;3.78;;;20.20;99.90;;;;;;5053951;28;20488;-79
2023/06/19 05:09:21;;;;;;;5.70;3.70;;;20.20;99.90;;;;;;5052915;28;20048;-79
2023/06/19 05:11:47;;;;;;;6.25;4.18;;;20.20;99.90;;;;;;5052767;28;20057;-79
2023/06/19 05:14:14;;;;;;;6.80;3.75;;;20.30;99.90;;;;;;5054072;28;20045;-78
2023/06/19 05:16:40;;;;;;;7.80;4.25;;;20.40;99.90;;;;;;5053841;28;20052;-79
2023/06/19 05:19:05;;;;;;;6.00;3.95;;;20.50;99.90;;;;;;5053667;28;20041;-79
2023/06/19 05:21:31;;;;;;;6.85;4.10;;;20.60;99.90;;;;;;5052741;28;20068;-79
2023/06/19 05:23:57;;;;;;;7.72;4.72;;;20.70;99.90;;;;;;5052593;28;20064;-79
2023/06/19 05:26:22;;;;;;;7.80;4.43;;;20.60;99.90;;;;;;5053592;28;20037;-79
2023/06/19 05:28:49;;;;;;;7.90;4.63;;;20.60;99.90;;;;;;5052543;28;20041;-79
2023/06/19 05:31:15;;;;;;;10.15;4.45;;;20.60;99.90;;;;;;5052570;28;20508;-80
2023/06/19 05:33:41;;;;;;;7.63;4.72;;;20.60;99.90;;;;;;5051869;28;20134;-79
2023/06/19 05:36:07;;;;;;;6.60;4.50;;;20.60;99.90;;;;;;5052264;28;20057;-79
2023/06/19 05:38:33;;;;;;;8.95;4.63;;;20.60;99.90;;;;;;5052067;28;20079;-80
2023/06/19 05:40:59;;;;;;;6.55;4.57;;;20.60;99.90;;;;;;5052271;28;20065;-80
2023/06/19 05:43:25;;;;;;;6.38;4.70;;;20.60;99.90;;;;;;5053606;28;20048;-79
2023/06/19 05:45:52;;;;;;;6.78;5.00;;;20.60;99.90;;;;;;5053377;28;20037;-79
2023/06/19 05:48:17;;;;;;;10.30;5.43;;;20.50;99.90;;;;;;5053511;28;20048;-80
2023/06/19 05:50:43;;;;;;;8.02;5.03;;;20.50;99.90;;;;;;5052318;28;20075;-79
2023/06/19 05:53:08;;;;;;;8.57;5.60;;;20.40;99.90;;;;;;5053364;28;20041;-79
2023/06/19 05:55:34;;;;;;;8.75;5.28;;;20.40;99.90;;;;;;5051953;28;20041;-79
2023/06/19 05:58:00;;;;;;;10.40;5.43;;;20.40;99.90;;;;;;5053423;28;20056;-79
2023/06/19 06:00:27;;;;;;;10.60;5.60;;;20.40;99.90;;;;;;5051988;28;20098;-79
2023/06/19 06:02:53;;;;;;;9.60;5.47;;;20.40;99.90;;;;;;5053165;28;20045;-79
2023/06/19 06:05:20;;;;;;;9.00;6.15;;;20.40;99.90;;;;;;5053481;28;20041;-79
2023/06/19 06:07:46;;;;;;;11.88;7.20;;;20.40;99.90;;;;;;5053323;28;20053;-78
2023/06/19 06:10:12;;;;;;;9.75;7.18;;;20.40;99.90;;;;;;5051912;28;20052;-78
2023/06/19 06:12:38;;;;;;;10.60;7.07;;;20.40;99.90;;;;;;5051903;28;20049;-78
2023/06/19 06:15:05;;;;;;;11.07;7.22;;;20.40;99.90;;;;;;5053218;28;20045;-79
2023/06/19 06:17:31;;;;;;;10.27;7.88;;;20.40;99.90;;;;;;5052036;28;20041;-79
2023/06/19 06:19:57;;;;;;;11.70;9.25;;;20.50;99.90;;;;;;5051766;28;20048;-79
2023/06/19 06:22:22;;;;;;;10.88;8.23;;;20.60;99.90;;;;;;5051749;28;20049;-79
2023/06/19 06:24:48;;;;;;;13.35;10.38;;;20.60;99.90;;;;;;5053062;28;20048;-76
2023/06/19 06:27:13;;;;;;;13.82;10.77;;;20.60;99.90;;;;;;5051445;28;20052;-75
2023/06/19 06:29:39;;;;;;;14.90;10.45;;;20.60;99.90;;;;;;5045792;28;20041;-74
2023/06/19 06:32:07;;;;;;;15.23;11.35;;;20.60;99.90;;;;;;5052909;28;20037;-77
2023/06/19 06:34:33;;;;;;;20.30;14.40;;;20.50;99.90;;;;;;5052512;28;20053;-76
2023/06/19 06:37:00;;;;;;;20.13;16.20;;;20.50;99.90;;;;;;5034868;28;20045;-76
2023/06/19 06:39:26;;;;;;;23.67;16.70;;;20.40;99.90;;;;;;5052927;28;20040;-76
2023/06/19 06:41:52;;;;;;;19.52;15.75;;;20.40;99.90;;;;;;5034914;28;20041;-78
2023/06/19 06:44:17;;;;;;;16.63;14.68;;;20.40;99.90;;;;;;5034724;28;20060;-76
2023/06/19 06:46:43;;;;;;;22.48;19.60;;;20.40;99.90;;;;;;5052800;28;20041;-78
2023/06/19 06:49:08;;;;;;;26.73;19.25;;;20.40;99.90;;;;;;5034922;28;20049;-78
2023/06/19 06:51:34;;;;;;;32.00;25.55;;;20.30;99.90;;;;;;5038610;28;20049;-76
2023/06/19 06:54:00;;;;;;;36.63;30.08;;;20.40;99.90;;;;;;5038441;28;20083;-77
2023/06/19 06:56:26;;;;;;;33.60;29.98;;;20.50;99.90;;;;;;5038366;28;20036;-77
2023/06/19 06:58:51;;;;;;;34.58;29.05;;;20.60;99.90;;;;;;5056183;28;20487;-77
2023/06/19 07:01:17;;;;;;;34.17;28.23;;;20.80;99.90;;;;;;5038222;28;20045;-77
2023/06/19 07:03:43;;;;;;;35.70;28.90;;;20.90;99.90;;;;;;5056382;28;20045;-77
2023/06/19 07:06:08;;;;;;;38.63;29.92;;;21.00;99.90;;;;;;5038271;28;20056;-78
2023/06/19 07:08:34;;;;;;;37.80;29.83;;;21.10;99.90;;;;;;5038148;28;20052;-77
2023/06/19 07:11:00;;;;;;;35.70;27.98;;;21.00;99.90;;;;;;5038142;28;20044;-75
2023/06/19 07:13:25;;;;;;;37.15;29.08;;;21.10;99.90;;;;;;5038080;28;20127;-78
2023/06/19 07:15:51;;;;;;;40.30;31.38;;;21.00;99.90;;;;;;5056061;28;20127;-76
2023/06/19 07:18:17;;;;;;;37.40;29.77;;;20.90;99.90;;;;;;5038128;28;20076;-77
2023/06/19 07:20:42;;;;;;;37.38;30.45;;;20.90;99.90;;;;;;5037845;28;20048;-76
2023/06/19 07:23:10;;;;;;;36.17;30.48;;;20.90;99.90;;;;;;5038028;28;20041;-77
2023/06/19 07:25:36;;;;;;;35.50;29.63;;;21.00;99.90;;;;;;5038033;28;20041;-76
2023/06/19 07:28:04;;;;;;;36.53;29.20;;;21.10;99.90;;;;;;5055664;28;20381;-77
2023/06/19 07:30:30;;;;;;;35.55;26.63;;;21.10;99.90;;;;;;5037675;28;20039;-78
2023/06/19 07:32:55;;;;;;;34.30;25.92;;;21.00;99.90;;;;;;5037787;28;20489;-77
2023/06/19 07:35:21;;;;;;;34.78;26.30;;;21.00;99.90;;;;;;5037537;28;20060;-78
2023/06/19 07:37:47;;;;;;;33.05;25.45;;;20.90;99.90;;;;;;5055586;28;20045;-76
2023/06/19 07:40:13;;;;;;;40.42;25.40;;;20.90;99.90;;;;;;5055716;28;20445;-81
2023/06/19 07:42:38;;;;;;;38.90;23.55;;;20.70;99.90;;;;;;5055889;28;20543;-88
2023/06/19 07:45:05;;;;;;;32.75;23.50;;;20.60;99.90;;;;;;5038417;28;20431;-94
2023/06/19 07:47:30;;;;;;;37.30;23.50;;;20.50;99.90;;;;;;5038525;28;20068;-92
2023/06/19 07:49:56;;;;;;;34.35;24.20;;;20.40;99.90;;;;;;5061314;28;20041;-96
2023/06/19 07:52:22;;;;;;;39.78;25.95;;;20.30;99.90;;;;;;5039546;28;20478;-86
2023/06/19 07:54:52;;;;;;;38.50;24.15;;;20.30;99.90;;;;;;5041715;28;20077;-94
2023/06/19 07:57:18;;;;;;;36.92;24.70;;;20.30;99.90;;;;;;5040235;28;20049;-86
2023/06/19 07:59:44;;;;;;;49.97;24.88;;;20.10;99.90;;;;;;5055537;28;20191;-90
2023/06/19 08:02:10;;;;;;;43.25;24.80;;;20.10;99.90;;;;;;5036684;28;20045;-89
2023/06/19 08:04:36;;;;;;;36.42;24.10;;;20.10;99.90;;;;;;5056009;28;20045;-88
2023/06/19 08:07:01;;;;;;;36.50;23.42;;;19.90;99.90;;;;;;5037171;28;20044;-76
2023/06/19 08:09:27;;;;;;;33.72;24.17;;;19.90;99.90;;;;;;5037142;28;20059;-77
2023/06/19 08:11:53;;;;;;;40.75;24.77;;;19.90;99.90;;;;;;5036981;28;20049;-75
2023/06/19 08:14:18;;;;;;;33.53;23.38;;;19.90;99.90;;;;;;5054759;28;20068;-76
2023/06/19 08:16:45;;;;;;;37.17;24.23;;;19.70;99.90;;;;;;5036922;28;20099;-76
2023/06/19 08:19:10;;;;;;;35.00;23.27;;;19.70;99.90;;;;;;5054784;28;20077;-76
2023/06/19 08:21:36;;;;;;;38.50;22.90;;;19.60;99.90;;;;;;5036830;28;20077;-78
2023/06/19 08:24:02;;;;;;;38.45;24.13;;;19.50;99.90;;;;;;5054985;28;20041;-78
2023/06/19 08:26:28;;;;;;;38.65;22.95;;;19.50;99.90;;;;;;5054912;28;20049;-77
2023/06/19 08:28:54;;;;;;;31.33;21.77;;;19.40;99.90;;;;;;5054395;28;20110;-77
2023/06/19 08:31:21;;;;;;;30.88;20.05;;;19.40;99.90;;;;;;5054833;28;20037;-78
2023/06/19 08:33:48;;;;;;;29.65;19.42;;;19.30;99.90;;;;;;5036408;28;20577;-77
2023/06/19 08:36:14;;;;;;;27.30;18.52;;;19.30;99.90;;;;;;5036609;28;20049;-78
2023/06/19 08:38:40;;;;;;;25.65;17.02;;;19.30;99.90;;;;;;5036566;28;20151;-77
2023/06/19 08:41:05;;;;;;;24.50;15.95;;;19.30;99.90;;;;;;5036442;28;20098;-78
2023/06/19 08:43:31;;;;;;;23.30;15.30;;;19.30;99.90;;;;;;5036778;28;20049;-77
2023/06/19 08:46:15;;;;;;;24.60;16.92;;;19.30;99.90;;;;;;5036453;28;20049;-77
2023/06/19 08:48:41;;;;;;;27.08;16.38;;;19.30;99.90;;;;;;5036400;28;20059;-77
2023/06/19 08:51:09;;;;;;;23.38;15.23;;;19.30;99.90;;;;;;5054209;28;20041;-77
2023/06/19 08:53:37;;;;;;;23.25;16.00;;;19.20;99.90;;;;;;5036166;28;20072;-76
2023/06/19 08:56:03;;;;;;;18.77;14.05;;;19.20;99.90;;;;;;5036497;28;20037;-76
2023/06/19 08:58:29;;;;;;;21.42;15.25;;;19.10;99.90;;;;;;5036386;28;20041;-77
2023/06/19 09:00:54;;;;;;;21.88;15.98;;;19.10;99.90;;;;;;5036111;28;20385;-77
2023/06/19 09:03:21;;;;;;;22.38;16.05;;;19.10;99.90;;;;;;5036238;28;20056;-77
2023/06/19 09:05:51;;;;;;;24.80;15.07;;;19.10;99.90;;;;;;5052917;28;20124;-75
2023/06/19 09:08:21;;;;;;;23.10;16.92;;;19.10;99.90;;;;;;5036185;28;20179;-75
2023/06/19 09:11:03;;;;;;;24.02;16.88;;;19.10;99.90;;;;;;5035962;28;20045;-77
2023/06/19 09:13:30;;;;;;;28.52;19.23;;;19.00;99.90;;;;;;5035543;28;20053;-76
2023/06/19 09:16:06;;;;;;;25.67;18.63;;;19.00;99.90;;;;;;5036427;28;20052;-77
2023/06/19 09:18:47;;;;;;;27.98;19.38;;;19.10;99.90;;;;;;5036179;28;20045;-77
2023/06/19 09:21:21;;;;;;;26.63;18.30;;;19.00;99.90;;;;;;5036085;28;20392;-77
2023/06/19 09:23:48;;;;;;;28.20;20.02;;;19.10;99.90;;;;;;5053704;28;20041;-77
2023/06/19 09:26:18;;;;;;;24.45;18.27;;;19.10;99.90;;;;;;5035743;28;20053;-78
2023/06/19 09:28:45;;;;;;;27.05;18.40;;;19.10;99.90;;;;;;5035619;28;20052;-77
2023/06/19 09:31:11;;;;;;;22.75;18.45;;;19.10;99.90;;;;;;5053488;28;20098;-76
2023/06/19 09:33:37;;;;;;;24.73;18.27;;;19.20;99.90;;;;;;5053295;28;20048;-77
2023/06/19 09:36:05;;;;;;;21.80;18.85;;;19.20;99.90;;;;;;5035726;28;20206;-78
2023/06/19 09:38:33;;;;;;;26.83;18.02;;;19.20;99.90;;;;;;5053501;28;20146;-77
2023/06/19 09:41:04;;;;;;;24.20;18.30;;;19.30;99.90;;;;;;5053343;28;20076;-77
2023/06/19 09:43:37;;;;;;;21.92;16.48;;;19.50;99.90;;;;;;5035445;28;20049;-77
2023/06/19 09:46:03;;;;;;;;;;;19.70;99.90;;;;;;5035762;28;20044;-77
2023/06/19 09:48:32;;;;;;;19.58;14.88;;;19.90;99.90;;;;;;5035718;28;20338;-77
2023/06/19 09:51:04;;;;;;;21.23;15.05;;;19.90;99.90;;;;;;5035441;28;20561;-77
2023/06/19 09:53:31;;;;;;;18.95;14.52;;;20.00;99.90;;;;;;5053407;28;20102;-78
2023/06/19 09:55:56;;;;;;;21.15;15.68;;;19.90;99.90;;;;;;5035514;28;20567;-77
2023/06/19 09:58:23;;;;;;;24.40;16.67;;;19.90;99.90;;;;;;5035124;28;20124;-76
2023/06/19 10:00:50;;;;;;;22.00;16.17;;;19.90;99.90;;;;;;5053224;28;20068;-77
2023/06/19 10:03:16;;;;;;;25.13;16.40;;;19.90;99.90;;;;;;5053082;28;20114;-75
2023/06/19 10:05:43;;;;;;;22.58;16.73;;;19.80;99.90;;;;;;5035168;28;20045;-76
2023/06/19 10:08:09;;;;;;;20.00;15.35;;;19.80;99.90;;;;;;5053011;28;20048;-75
2023/06/19 10:10:35;;;;;;;21.67;15.68;;;19.70;99.90;;;;;;5052957;28;20037;-76
2023/06/19 10:13:16;;;;;;;19.17;14.73;;;19.70;99.90;;;;;;5035053;28;20049;-76
2023/06/19 10:15:43;;;;;;;21.45;14.73;;;19.90;99.90;;;;;;5035336;28;20048;-74
2023/06/19 10:18:18;;;;;;;19.10;15.55;;;19.90;99.90;;;;;;5051703;28;20107;-76
2023/06/19 10:20:44;;;;;;;19.40;15.13;;;19.90;99.90;;;;;;5052974;28;20041;-76
2023/06/19 10:23:19;;;;;;;24.40;15.75;;;19.90;99.90;;;;;;5052930;28;20124;-76
2023/06/19 10:25:46;;;;;;;24.40;16.90;;;19.90;99.90;;;;;;5037712;28;20056;-76
2023/06/19 10:28:29;;;;;;;20.05;15.57;;;19.80;99.90;;;;;;5039265;28;20128;-77
2023/06/19 10:30:56;;;;;;;23.42;17.50;;;19.90;99.90;;;;;;5039165;28;20128;-77
2023/06/19 10:33:32;;;;;;;20.48;15.77;;;20.00;99.90;;;;;;5038738;28;20128;-77
2023/06/19 10:35:59;;;;;;;25.42;16.52;;;20.10;99.90;;;;;;5038875;28;20064;-77
2023/06/19 10:38:26;;;;;;;24.77;17.98;;;20.20;99.90;;;;;;5039175;28;20049;-77
2023/06/19 10:40:52;;;;;;;28.52;17.13;;;20.30;99.90;;;;;;5056606;28;20103;-77
2023/06/19 10:43:30;;;;;;;20.98;16.35;;;20.40;99.90;;;;;;5038667;28;20053;-77
2023/06/19 10:45:56;;;;;;;22.88;15.98;;;20.70;99.90;;;;;;5039023;28;20102;-77
2023/06/19 10:48:24;;;;;;;21.85;15.43;;;20.90;99.90;;;;;;5038630;28;20045;-77
2023/06/19 10:50:51;;;;;;;19.65;16.38;;;21.10;99.90;;;;;;5056370;28;20041;-77
2023/06/19 10:53:27;;;;;;;23.55;15.30;;;21.20;99.90;;;;;;5056523;28;20045;-77
2023/06/19 10:55:59;;;;;;;20.88;15.45;;;21.10;99.90;;;;;;5038802;28;20081;-77
2023/06/19 10:58:25;;;;;;;22.17;16.30;;;21.10;99.90;;;;;;5038679;28;20110;-77
2023/06/19 11:00:51;;;;;;;20.92;14.25;;;21.10;99.90;;;;;;5064113;28;20080;-76
2023/06/19 11:03:18;;;;;;;17.77;13.10;;;21.20;99.90;;;;;;5052677;28;20048;-74
2023/06/19 11:05:46;;;;;;;18.65;13.70;;;21.40;99.90;;;;;;5052405;28;20048;-76
2023/06/19 11:08:23;;;;;;;18.13;13.93;;;21.50;99.90;;;;;;5069421;28;20044;-76
2023/06/19 11:10:50;;;;;;;17.15;13.55;;;21.70;99.90;;;;;;5070950;28;20040;-75
2023/06/19 11:13:20;;;;;;;16.02;13.30;;;21.90;99.90;;;;;;5056336;28;20160;-75
2023/06/19 11:15:49;;;;;;;18.58;13.98;;;22.10;99.90;;;;;;5043736;28;20050;-75
2023/06/19 11:18:16;;;;;;;20.92;15.05;;;22.10;99.90;;;;;;5056687;28;20383;-75
2023/06/19 11:20:46;;;;;;;19.85;15.30;;;22.10;99.90;;;;;;5058060;28;20395;-75
2023/06/19 11:23:12;;;;;;;19.48;15.07;;;22.10;99.90;;;;;;5084858;28;20102;-76
2023/06/19 11:25:39;;;;;;;18.73;15.55;;;22.20;99.90;;;;;;5076136;28;20029;-76
2023/06/19 11:28:14;;;;;;;20.45;16.80;;;22.40;99.90;;;;;;5058318;28;20078;-76
2023/06/19 11:30:43;;;;;;;22.95;14.93;;;22.30;99.90;;;;;;5062665;28;20498;-76
2023/06/19 11:33:22;;;;;;;19.23;15.02;;;22.40;99.90;;;;;;5077884;28;20056;-76
2023/06/19 11:35:50;;;;;;;16.80;14.52;;;22.50;99.90;;;;;;5077545;28;20497;-76
2023/06/19 11:38:24;;;;;;;18.30;14.23;;;22.70;99.90;;;;;;5095955;28;20089;-75
2023/06/19 11:40:50;;;;;;;19.58;14.18;;;23.00;99.90;;;;;;5067978;28;20048;-76
2023/06/19 11:43:29;;;;;;;20.95;15.40;;;22.90;99.90;;;;;;5057766;28;20045;-76
2023/06/19 11:46:05;;;;;;;20.90;17.23;;;23.10;99.90;;;;;;5057499;28;20087;-75
2023/06/19 11:48:31;;;;;;;24.02;16.05;;;23.10;99.90;;;;;;5086993;28;20040;-76
2023/06/19 11:50:57;;;;;;;24.15;15.38;;;23.30;99.90;;;;;;5095505;28;20047;-76
2023/06/19 11:53:24;;;;;;;22.27;17.63;;;23.30;99.90;;;;;;5077267;28;20135;-76
2023/06/19 11:55:50;;;;;;;22.48;15.88;;;23.00;99.90;;;;;;5094324;28;20036;-76
2023/06/19 11:58:16;;;;;;;22.05;17.00;;;22.90;99.90;;;;;;5077246;28;20093;-76
2023/06/19 12:00:43;;;;;;;20.75;15.07;;;22.90;99.90;;;;;;5077444;28;20052;-77
2023/06/19 12:03:09;;;;;;;19.10;14.55;;;23.00;99.90;;;;;;5077296;28;20055;-77
2023/06/19 12:05:38;;;;;;;15.80;13.32;;;23.10;99.90;;;;;;5077380;28;20047;-77
2023/06/19 12:08:05;;;;;;;15.73;12.02;;;23.30;99.90;;;;;;5095137;28;20558;-76
2023/06/19 12:10:31;;;;;;;15.07;10.82;;;23.60;99.90;;;;;;5095390;28;20036;-77
2023/06/19 12:12:57;;;;;;;16.75;11.95;;;23.60;99.90;;;;;;5095083;28;20372;-76
2023/06/19 12:15:24;;;;;;;13.10;11.48;;;23.60;99.90;;;;;;5063859;28;20526;-76
2023/06/19 12:17:51;;;;;;;15.70;12.48;;;23.40;99.90;;;;;;5056809;28;20048;-76
2023/06/19 12:20:17;;;;;;;15.20;10.95;;;23.60;99.90;;;;;;5057073;28;20480;-76
2023/06/19 12:22:42;;;;;;;13.52;9.82;;;23.60;99.90;;;;;;5068672;28;20051;-75
2023/06/19 12:25:08;;;;;;;14.30;10.68;;;23.70;99.90;;;;;;5076754;28;20502;-76
2023/06/19 12:27:34;;;;;;;14.30;10.70;;;23.70;99.90;;;;;;5077030;28;20155;-76
2023/06/19 12:30:00;;;;;;;11.98;9.60;;;23.60;99.90;;;;;;5095082;28;20470;-75
2023/06/19 12:32:25;;;;;;;11.90;9.63;;;23.80;99.90;;;;;;5094645;28;20440;-76